createdAt,value
2023-05-07T00:02:11.609Z,35.33
2023-05-07T00:04:56.814Z,35.07
2023-05-07T00:07:42.562Z,36.33
2023-05-07T00:10:28.305Z,35.53
2023-05-07T00:13:13.783Z,35.13
2023-05-07T00:15:59.447Z,36.10
2023-05-07T00:18:44.707Z,35.30
2023-05-07T00:21:30.419Z,35.10
2023-05-07T00:24:15.843Z,35.17
2023-05-07T00:27:01.922Z,35.15
2023-05-07T00:29:47.192Z,35.50
2023-05-07T00:32:32.555Z,34.53
2023-05-07T00:35:18.092Z,34.23
2023-05-07T00:38:03.453Z,33.20
2023-05-07T00:40:48.975Z,32.80
2023-05-07T00:43:34.227Z,33.10
2023-05-07T00:46:21.625Z,33.47
2023-05-07T00:49:07.812Z,33.78
2023-05-07T00:51:53.011Z,33.85
2023-05-07T00:54:38.753Z,33.50
2023-05-07T00:57:25.297Z,34.17
2023-05-07T01:00:11.474Z,34.07
2023-05-07T01:02:57.116Z,34.87
2023-05-07T01:05:44.738Z,34.33
2023-05-07T01:08:31.387Z,35.90
2023-05-07T01:11:18.560Z,33.83
2023-05-07T01:14:05.373Z,34.20
2023-05-07T01:16:51.285Z,35.40
2023-05-07T01:19:38.338Z,34.03
2023-05-07T01:22:35.130Z,33.50
2023-05-07T01:25:20.505Z,33.97
2023-05-07T01:28:09.777Z,34.50
2023-05-07T01:31:02.035Z,33.47
2023-05-07T01:33:49.722Z,34.47
2023-05-07T01:36:39.531Z,35.67
2023-05-07T01:39:26.756Z,35.03
2023-05-07T01:42:12.846Z,34.87
2023-05-07T01:44:58.205Z,35.33
2023-05-07T01:47:44.722Z,33.60
2023-05-07T01:50:32.550Z,33.78
2023-05-07T01:53:18.264Z,33.97
2023-05-07T01:56:04.063Z,34.40
2023-05-07T01:58:50.688Z,34.20
2023-05-07T02:01:35.887Z,35.27
2023-05-07T02:04:21.329Z,34.50
2023-05-07T02:07:06.857Z,33.73
2023-05-07T02:09:52.689Z,34.63
2023-05-07T02:12:38.634Z,33.73
2023-05-07T02:15:24.242Z,31.33
2023-05-07T02:18:10.518Z,32.03
2023-05-07T02:20:56.765Z,30.00
2023-05-07T02:23:42.267Z,30.90
2023-05-07T02:26:27.463Z,31.50
2023-05-07T02:29:13.053Z,29.27
2023-05-07T02:31:59.517Z,30.27
2023-05-07T02:34:44.704Z,30.30
2023-05-07T02:37:30.277Z,30.27
2023-05-07T02:40:15.753Z,29.50
2023-05-07T02:43:00.856Z,29.77
2023-05-07T02:45:46.525Z,29.90
2023-05-07T02:48:33.163Z,28.80
2023-05-07T02:51:23.994Z,28.23
2023-05-07T02:54:10.915Z,29.07
2023-05-07T02:56:56.340Z,28.07
2023-05-07T02:59:42.208Z,28.70
2023-05-07T03:02:27.754Z,28.57
2023-05-07T03:05:13.148Z,27.77
2023-05-07T03:07:58.627Z,29.37
2023-05-07T03:10:44.191Z,28.43
2023-05-07T03:13:29.482Z,28.53
2023-05-07T03:16:15.020Z,28.30
2023-05-07T03:19:01.095Z,28.70
2023-05-07T03:21:47.919Z,27.40
2023-05-07T03:24:33.513Z,27.90
2023-05-07T03:27:18.787Z,28.37
2023-05-07T03:30:05.178Z,27.57
2023-05-07T03:32:50.627Z,27.33
2023-05-07T03:35:35.975Z,26.10
2023-05-07T03:38:21.488Z,26.17
2023-05-07T03:41:07.222Z,25.87
2023-05-07T03:43:52.861Z,25.43
2023-05-07T03:46:38.042Z,26.17
2023-05-07T03:49:23.715Z,26.37
2023-05-07T03:52:09.353Z,25.30
2023-05-07T03:54:54.750Z,25.00
2023-05-07T03:57:40.591Z,25.50
2023-05-07T04:00:25.778Z,24.43
2023-05-07T04:03:11.237Z,24.27
2023-05-07T04:05:56.805Z,24.50
2023-05-07T04:08:42.603Z,23.80
2023-05-07T04:11:27.889Z,23.47
2023-05-07T04:14:13.538Z,23.43
2023-05-07T04:16:59.992Z,22.93
2023-05-07T04:19:46.100Z,23.70
2023-05-07T04:22:31.220Z,23.17
2023-05-07T04:25:18.612Z,22.93
2023-05-07T04:28:04.430Z,23.97
2023-05-07T04:30:49.781Z,23.70
2023-05-07T04:33:35.341Z,23.27
2023-05-07T04:36:21.250Z,24.77
2023-05-07T04:39:16.483Z,24.73
2023-05-07T04:42:04.552Z,23.87
2023-05-07T04:44:54.514Z,23.07
2023-05-07T04:47:41.794Z,24.73
2023-05-07T04:50:27.201Z,25.07
2023-05-07T04:53:17.393Z,24.87
2023-05-07T04:56:02.920Z,25.50
2023-05-07T04:58:58.096Z,25.30
2023-05-07T05:01:43.418Z,26.03
2023-05-07T05:04:29.020Z,26.40
2023-05-07T05:07:14.882Z,25.80
2023-05-07T05:10:00.619Z,26.90
2023-05-07T05:12:46.317Z,27.40
2023-05-07T05:15:33.720Z,28.30
2023-05-07T05:18:19.961Z,27.57
2023-05-07T05:21:05.551Z,27.50
2023-05-07T05:23:52.134Z,29.07
2023-05-07T05:26:40.409Z,28.03
2023-05-07T05:29:26.206Z,28.40
2023-05-07T05:32:11.600Z,27.70
2023-05-07T05:34:57.528Z,26.90
2023-05-07T05:37:43.524Z,26.37
2023-05-07T05:40:29.063Z,26.53
2023-05-07T05:43:15.526Z,27.20
2023-05-07T05:46:03.089Z,25.80
2023-05-07T05:48:49.078Z,26.13
2023-05-07T05:51:34.792Z,25.37
2023-05-07T05:54:20.357Z,24.80
2023-05-07T05:57:06.942Z,23.40
2023-05-07T05:59:52.558Z,25.03
2023-05-07T06:02:38.193Z,22.57
2023-05-07T06:05:26.101Z,22.57
2023-05-07T06:08:14.206Z,21.90
2023-05-07T06:10:59.621Z,22.13
2023-05-07T06:13:45.532Z,20.43
2023-05-07T06:16:30.659Z,21.47
2023-05-07T06:19:16.167Z,19.83
2023-05-07T06:22:01.761Z,18.57
2023-05-07T06:24:48.365Z,18.80
2023-05-07T06:27:33.980Z,19.17
2023-05-07T06:30:19.574Z,18.00
2023-05-07T06:33:05.748Z,17.53
2023-05-07T06:35:51.323Z,17.40
2023-05-07T06:38:36.638Z,17.60
2023-05-07T06:41:21.772Z,18.23
2023-05-07T06:44:09.660Z,18.40
2023-05-07T06:47:02.994Z,17.40
2023-05-07T06:49:48.295Z,16.77
2023-05-07T06:53:01.572Z,16.43
2023-05-07T06:55:46.922Z,16.07
2023-05-07T06:58:33.710Z,14.47
2023-05-07T07:01:19.554Z,13.80
2023-05-07T07:04:05.249Z,14.50
2023-05-07T07:06:53.198Z,15.27
2023-05-07T07:09:38.660Z,13.70
2023-05-07T07:12:26.093Z,14.73
2023-05-07T07:15:11.580Z,14.00
2023-05-07T07:17:57.605Z,13.77
2023-05-07T07:20:43.758Z,14.83
2023-05-07T07:23:28.915Z,14.33
2023-05-07T07:26:14.446Z,13.83
2023-05-07T07:28:59.663Z,13.97
2023-05-07T07:31:45.323Z,14.07
2023-05-07T07:34:31.649Z,13.37
2023-05-07T07:37:17.162Z,13.60
2023-05-07T07:40:02.688Z,12.90
2023-05-07T07:42:47.783Z,13.67
2023-05-07T07:45:34.988Z,14.60
2023-05-07T07:48:20.978Z,13.47
2023-05-07T07:51:06.531Z,14.37
2023-05-07T07:53:51.763Z,14.20
2023-05-07T07:56:38.219Z,14.13
2023-05-07T07:59:25.116Z,14.60
2023-05-07T08:02:10.542Z,14.53
2023-05-07T08:04:55.959Z,14.47
2023-05-07T08:07:42.091Z,14.47
2023-05-07T08:10:28.099Z,14.80
2023-05-07T08:13:20.097Z,15.00
2023-05-07T08:16:05.999Z,15.33
2023-05-07T08:18:52.652Z,15.27
2023-05-07T08:21:40.558Z,14.90
2023-05-07T08:24:27.372Z,15.17
2023-05-07T08:27:12.837Z,15.00
2023-05-07T08:30:00.693Z,14.63
2023-05-07T08:32:46.342Z,14.53
2023-05-07T08:35:31.743Z,14.70
2023-05-07T08:38:16.835Z,14.50
2023-05-07T08:41:02.578Z,14.43
2023-05-07T08:43:51.474Z,14.63
2023-05-07T08:46:38.269Z,13.47
2023-05-07T08:49:23.575Z,13.70
2023-05-07T08:52:10.401Z,14.30
2023-05-07T08:54:57.497Z,13.70
2023-05-07T08:57:43.725Z,13.60
2023-05-07T09:00:30.053Z,13.37
2023-05-07T09:03:17.166Z,13.33
2023-05-07T09:06:06.200Z,13.47
2023-05-07T09:08:53.641Z,12.90
2023-05-07T09:11:40.270Z,12.83
2023-05-07T09:14:25.976Z,12.93
2023-05-07T09:17:11.179Z,12.93
2023-05-07T09:19:56.849Z,13.10
2023-05-07T09:22:42.454Z,13.60
2023-05-07T09:25:35.978Z,13.93
2023-05-07T09:28:26.906Z,13.50
2023-05-07T09:31:13.121Z,14.20
2023-05-07T09:33:58.608Z,14.20
2023-05-07T09:36:47.925Z,12.93
2023-05-07T09:39:47.378Z,13.27
2023-05-07T09:42:35.570Z,13.73
2023-05-07T09:45:27.154Z,13.97
2023-05-07T09:48:17.333Z,14.83
2023-05-07T09:51:06.224Z,15.00
2023-05-07T09:53:53.953Z,14.60
2023-05-07T09:56:40.570Z,14.27
2023-05-07T09:59:29.923Z,14.65
2023-05-07T10:02:19.064Z,14.17
2023-05-07T10:05:07.994Z,14.53
2023-05-07T10:07:54.064Z,14.43
2023-05-07T10:10:41.410Z,15.00
2023-05-07T10:13:30.118Z,14.90
2023-05-07T10:16:18.636Z,14.80
2023-05-07T10:19:08.320Z,14.20
2023-05-07T10:22:01.004Z,15.33
2023-05-07T10:24:53.197Z,15.67
2023-05-07T10:27:39.720Z,15.20
2023-05-07T10:31:00.836Z,14.87
2023-05-07T10:33:52.160Z,15.67
2023-05-07T10:36:40.119Z,16.70
2023-05-07T10:39:26.141Z,15.67
2023-05-07T10:42:13.153Z,15.48
2023-05-07T10:45:15.543Z,15.73
2023-05-07T10:48:25.065Z,16.27
2023-05-07T10:51:21.750Z,15.63
2023-05-07T10:54:11.209Z,14.97
2023-05-07T10:57:35.218Z,15.20
2023-05-07T11:00:38.031Z,15.00
2023-05-07T11:03:28.698Z,14.68
2023-05-07T11:06:18.832Z,14.65
2023-05-07T11:09:15.464Z,15.30
2023-05-07T11:12:10.881Z,15.57
2023-05-07T11:15:07.705Z,14.17
2023-05-07T11:17:57.456Z,14.98
2023-05-07T11:20:52.940Z,13.60
2023-05-07T11:23:57.819Z,13.50
2023-05-07T11:26:52.002Z,13.10
2023-05-07T11:29:39.524Z,13.70
2023-05-07T11:32:31.273Z,13.70
2023-05-07T11:35:18.376Z,13.80
2023-05-07T11:38:06.308Z,13.23
2023-05-07T11:40:59.063Z,14.03
2023-05-07T11:44:00.917Z,13.40
2023-05-07T11:46:46.307Z,12.83
2023-05-07T11:49:32.037Z,13.10
2023-05-07T11:52:19.022Z,12.27
2023-05-07T11:55:04.802Z,12.90
2023-05-07T11:57:49.956Z,12.20
2023-05-07T12:00:37.872Z,13.13
2023-05-07T12:03:23.131Z,12.52
2023-05-07T12:06:08.899Z,11.57
2023-05-07T12:08:54.243Z,11.40
2023-05-07T12:11:39.377Z,12.88
2023-05-07T12:14:28.448Z,11.93
2023-05-07T12:17:15.812Z,12.52
2023-05-07T12:20:01.865Z,12.02
2023-05-07T12:22:48.852Z,12.45
2023-05-07T12:25:38.966Z,12.23
2023-05-07T12:28:24.409Z,13.52
2023-05-07T12:31:09.965Z,13.52
2023-05-07T12:33:55.599Z,12.98
2023-05-07T12:36:41.510Z,13.40
2023-05-07T12:39:26.865Z,13.52
2023-05-07T12:42:17.507Z,12.95
2023-05-07T12:45:11.479Z,13.27
2023-05-07T12:47:57.530Z,12.93
2023-05-07T12:50:42.691Z,13.77
2023-05-07T12:53:29.054Z,13.55
2023-05-07T12:56:16.927Z,13.37
2023-05-07T12:59:02.430Z,12.82
2023-05-07T13:01:48.056Z,12.65
2023-05-07T13:04:33.785Z,12.95
2023-05-07T13:07:19.722Z,12.05
2023-05-07T13:10:05.787Z,12.02
2023-05-07T13:12:51.789Z,12.60
2023-05-07T13:15:36.912Z,11.65
2023-05-07T13:18:22.356Z,12.32
2023-05-07T13:21:07.758Z,12.00
2023-05-07T13:23:53.188Z,12.70
2023-05-07T13:26:38.675Z,11.57
2023-05-07T13:29:23.955Z,12.10
2023-05-07T13:32:09.147Z,12.25
2023-05-07T13:34:54.981Z,12.25
2023-05-07T13:37:39.990Z,11.38
2023-05-07T13:40:25.668Z,12.75
2023-05-07T13:43:11.119Z,12.05
2023-05-07T13:45:56.569Z,11.98
2023-05-07T13:48:41.873Z,11.52
2023-05-07T13:51:27.455Z,11.85
2023-05-07T13:54:12.943Z,12.13
2023-05-07T13:56:58.105Z,11.15
2023-05-07T13:59:43.635Z,11.57
2023-05-07T14:02:28.870Z,11.00
2023-05-07T14:05:14.253Z,11.25
2023-05-07T14:08:00.982Z,11.23
2023-05-07T14:10:46.814Z,10.90
2023-05-07T14:13:32.210Z,11.65
2023-05-07T14:16:17.481Z,10.95
2023-05-07T14:19:02.715Z,10.20
2023-05-07T14:21:48.296Z,10.32
2023-05-07T14:24:38.727Z,9.68
2023-05-07T14:27:24.570Z,10.05
2023-05-07T14:30:10.267Z,9.40
2023-05-07T14:32:55.702Z,9.40
2023-05-07T14:35:41.521Z,10.30
2023-05-07T14:38:26.936Z,9.90
2023-05-07T14:41:12.566Z,10.15
2023-05-07T14:43:58.064Z,11.10
2023-05-07T14:46:43.712Z,10.32
2023-05-07T14:49:29.222Z,10.98
2023-05-07T14:52:15.343Z,9.88
2023-05-07T14:55:00.320Z,10.73
2023-05-07T14:57:45.912Z,9.55
2023-05-07T15:00:31.190Z,9.45
2023-05-07T15:03:16.686Z,9.05
2023-05-07T15:06:04.315Z,8.60
2023-05-07T15:08:49.556Z,8.52
2023-05-07T15:11:35.248Z,8.73
2023-05-07T15:14:23.648Z,8.80
2023-05-07T15:17:09.207Z,8.80
2023-05-07T15:19:54.679Z,9.40
2023-05-07T15:22:39.874Z,8.98
2023-05-07T15:25:25.193Z,9.10
2023-05-07T15:28:10.722Z,8.82
2023-05-07T15:30:56.463Z,8.52
2023-05-07T15:33:42.066Z,9.00
2023-05-07T15:36:27.518Z,8.25
2023-05-07T15:39:13.079Z,8.15
2023-05-07T15:41:58.335Z,7.55
2023-05-07T15:44:43.548Z,7.43
2023-05-07T15:47:29.180Z,8.23
2023-05-07T15:50:14.605Z,7.68
2023-05-07T15:53:00.002Z,8.48
2023-05-07T15:55:45.574Z,8.18
2023-05-07T15:58:31.930Z,8.15
2023-05-07T16:01:17.396Z,7.88
2023-05-07T16:04:02.422Z,8.02
2023-05-07T16:06:47.604Z,7.97
2023-05-07T16:09:33.177Z,8.32
2023-05-07T16:12:18.612Z,8.50
2023-05-07T16:15:04.240Z,7.90
2023-05-07T16:17:49.406Z,7.82
2023-05-07T16:20:34.491Z,7.85
2023-05-07T16:23:20.035Z,8.00
2023-05-07T16:26:05.246Z,7.65
2023-05-07T16:28:50.473Z,6.97
2023-05-07T16:31:35.845Z,6.50
2023-05-07T16:34:21.332Z,6.47
2023-05-07T16:37:07.019Z,6.28
2023-05-07T16:39:52.482Z,6.57
2023-05-07T16:42:37.776Z,6.82
2023-05-07T16:45:23.401Z,6.95
2023-05-07T16:48:08.744Z,7.07
2023-05-07T16:50:53.942Z,7.47
2023-05-07T16:53:39.592Z,7.07
2023-05-07T16:56:25.978Z,7.20
2023-05-07T16:59:11.544Z,6.88
2023-05-07T17:01:58.489Z,6.88
2023-05-07T17:04:44.319Z,6.53
2023-05-07T17:07:29.901Z,6.88
2023-05-07T17:10:15.265Z,6.57
2023-05-07T17:13:00.318Z,6.15
2023-05-07T17:15:45.640Z,6.50
2023-05-07T17:18:30.713Z,7.05
2023-05-07T17:21:16.018Z,7.25
2023-05-07T17:24:01.525Z,7.05
2023-05-07T17:26:50.071Z,6.68
2023-05-07T17:29:35.327Z,7.22
2023-05-07T17:32:20.922Z,7.07
2023-05-07T17:35:06.813Z,7.55
2023-05-07T17:37:52.563Z,7.57
2023-05-07T17:40:38.242Z,7.22
2023-05-07T17:43:23.527Z,6.88
2023-05-07T17:46:09.527Z,6.82
2023-05-07T17:48:55.226Z,7.40
2023-05-07T17:51:52.547Z,7.25
2023-05-07T17:54:39.571Z,7.07
2023-05-07T17:57:24.880Z,7.05
2023-05-07T18:00:11.258Z,6.90
2023-05-07T18:02:56.808Z,6.70
2023-05-07T18:05:42.481Z,7.55
2023-05-07T18:08:27.425Z,7.47
2023-05-07T18:11:12.849Z,7.60
2023-05-07T18:13:57.796Z,7.35
2023-05-07T18:16:43.556Z,7.60
2023-05-07T18:19:28.914Z,7.60
2023-05-07T18:22:14.158Z,7.90
2023-05-07T18:24:59.361Z,8.00
2023-05-07T18:27:44.809Z,7.93
2023-05-07T18:30:30.103Z,7.50
2023-05-07T18:33:15.395Z,8.40
2023-05-07T18:36:00.663Z,7.63
2023-05-07T18:38:45.914Z,7.80
2023-05-07T18:41:31.250Z,8.00
2023-05-07T18:44:16.961Z,8.05
2023-05-07T18:47:02.126Z,8.55
2023-05-07T18:49:47.245Z,8.03
2023-05-07T18:52:57.064Z,8.50
2023-05-07T18:55:42.765Z,7.83
2023-05-07T18:58:28.432Z,7.57
2023-05-07T19:01:14.181Z,7.60
2023-05-07T19:03:59.644Z,6.97
2023-05-07T19:06:44.915Z,7.30
2023-05-07T19:09:30.141Z,7.03
2023-05-07T19:12:15.478Z,6.97
2023-05-07T19:15:00.691Z,6.70
2023-05-07T19:17:45.884Z,7.20
2023-05-07T19:20:31.185Z,6.70
2023-05-07T19:23:16.763Z,6.70
2023-05-07T19:26:02.508Z,6.50
2023-05-07T19:28:56.397Z,6.30
2023-05-07T19:31:46.934Z,6.57
2023-05-07T19:34:32.573Z,6.03
2023-05-07T19:37:18.134Z,6.67
2023-05-07T19:40:04.550Z,6.10
2023-05-07T19:42:49.637Z,6.17
2023-05-07T19:45:35.326Z,7.07
2023-05-07T19:48:20.862Z,6.30
2023-05-07T19:51:06.224Z,6.30
2023-05-07T19:53:51.473Z,6.50
2023-05-07T19:56:36.696Z,6.17
2023-05-07T19:59:25.671Z,6.30
2023-05-07T20:02:11.892Z,6.80
2023-05-07T20:04:57.333Z,7.00
2023-05-07T20:07:44.411Z,6.13
2023-05-07T20:10:30.558Z,6.47
2023-05-07T20:13:15.940Z,6.00
2023-05-07T20:16:02.296Z,5.90
2023-05-07T20:18:47.920Z,5.57
2023-05-07T20:21:33.110Z,5.87
2023-05-07T20:24:18.822Z,6.00
2023-05-07T20:27:04.203Z,6.37
2023-05-07T20:29:49.432Z,6.53
2023-05-07T20:32:34.788Z,6.70
2023-05-07T20:35:20.247Z,6.13
2023-05-07T20:38:05.498Z,6.40
2023-05-07T20:40:51.254Z,6.40
2023-05-07T20:43:36.562Z,6.97
2023-05-07T20:46:22.123Z,6.90
2023-05-07T20:49:07.514Z,7.00
2023-05-07T20:51:52.698Z,7.17
2023-05-07T20:54:37.677Z,7.17
2023-05-07T20:57:23.260Z,7.27
2023-05-07T21:00:08.679Z,7.03
2023-05-07T21:02:54.043Z,7.10
2023-05-07T21:05:39.537Z,6.70
2023-05-07T21:08:24.641Z,7.17
2023-05-07T21:11:09.900Z,7.73
2023-05-07T21:13:55.160Z,7.53
2023-05-07T21:16:40.705Z,7.47
2023-05-07T21:19:26.499Z,7.40
2023-05-07T21:22:11.893Z,7.30
2023-05-07T21:24:57.266Z,7.37
2023-05-07T21:27:42.736Z,7.50
2023-05-07T21:30:28.201Z,7.63
2023-05-07T21:33:13.614Z,7.67
2023-05-07T21:35:58.974Z,7.37
2023-05-07T21:38:44.127Z,7.67
2023-05-07T21:41:29.582Z,7.87
2023-05-07T21:44:14.942Z,8.40
2023-05-07T21:47:00.297Z,8.40
2023-05-07T21:49:46.122Z,8.60
2023-05-07T21:52:31.751Z,8.43
2023-05-07T21:55:20.334Z,8.87
2023-05-07T21:58:06.463Z,8.60
2023-05-07T22:00:51.555Z,8.87
2023-05-07T22:03:36.696Z,8.50
2023-05-07T22:06:22.066Z,8.40
2023-05-07T22:09:07.335Z,8.63
2023-05-07T22:11:52.875Z,8.83
2023-05-07T22:14:38.134Z,8.80
2023-05-07T22:17:23.458Z,9.80
2023-05-07T22:20:09.321Z,9.33
2023-05-07T22:22:56.109Z,10.03
2023-05-07T22:25:41.621Z,10.60
2023-05-07T22:28:26.839Z,10.47
2023-05-07T22:31:11.980Z,10.20
2023-05-07T22:33:57.420Z,10.67
2023-05-07T22:36:42.840Z,11.07
2023-05-07T22:39:28.303Z,11.47
2023-05-07T22:42:13.820Z,11.43
2023-05-07T22:44:59.122Z,10.80
2023-05-07T22:47:44.534Z,11.13
2023-05-07T22:50:29.596Z,10.73
2023-05-07T22:53:15.070Z,11.27
2023-05-07T22:56:04.843Z,11.33
2023-05-07T22:58:50.111Z,11.83
2023-05-07T23:01:35.344Z,11.50
2023-05-07T23:04:21.010Z,11.53
2023-05-07T23:07:06.178Z,11.50
2023-05-07T23:09:51.696Z,11.23
2023-05-07T23:12:36.815Z,11.77
2023-05-07T23:15:22.393Z,11.43
2023-05-07T23:18:07.769Z,10.87
2023-05-07T23:20:52.919Z,11.37
2023-05-07T23:23:38.320Z,11.90
2023-05-07T23:26:27.088Z,11.67
2023-05-07T23:29:12.314Z,11.97
2023-05-07T23:31:57.589Z,11.77
2023-05-07T23:34:43.037Z,12.13
2023-05-07T23:37:28.431Z,12.60
2023-05-07T23:40:14.040Z,12.27
2023-05-07T23:42:59.837Z,13.00
2023-05-07T23:45:44.816Z,12.97
2023-05-07T23:48:30.128Z,12.50
2023-05-07T23:51:15.602Z,12.80
2023-05-07T23:54:00.774Z,12.03
2023-05-07T23:56:46.019Z,12.20
2023-05-07T23:59:31.773Z,11.90
